createdAt,value
2023-10-08T00:01:07.423Z,17.14
2023-10-08T00:03:35.492Z,17.12
2023-10-08T00:06:08.271Z,17.13
2023-10-08T00:08:37.589Z,17.02
2023-10-08T00:11:08.579Z,17.03
2023-10-08T00:13:41.019Z,17.08
2023-10-08T00:16:11.446Z,17.12
2023-10-08T00:18:41.981Z,17.15
2023-10-08T00:21:20.630Z,17.09
2023-10-08T00:23:54.196Z,17.05
2023-10-08T00:26:29.362Z,17.05
2023-10-08T00:29:00.524Z,17.02
2023-10-08T00:31:32.894Z,17.04
2023-10-08T00:34:00.730Z,16.96
2023-10-08T00:36:28.828Z,16.99
2023-10-08T00:39:01.619Z,17.09
2023-10-08T00:41:32.277Z,17.09
2023-10-08T00:44:02.589Z,17.04
2023-10-08T00:46:33.319Z,17.17
2023-10-08T00:49:21.060Z,17.16
2023-10-08T00:51:49.787Z,17.10
2023-10-08T00:54:20.622Z,17.22
2023-10-08T00:56:51.116Z,17.23
2023-10-08T00:59:22.554Z,17.27
2023-10-08T01:01:53.391Z,17.25
2023-10-08T01:04:25.113Z,17.22
2023-10-08T01:07:00.333Z,17.30
2023-10-08T01:09:36.511Z,17.27
2023-10-08T01:12:17.097Z,17.23
2023-10-08T01:14:45.777Z,17.30
2023-10-08T01:17:16.833Z,17.17
2023-10-08T01:19:46.903Z,17.33
2023-10-08T01:22:19.946Z,17.27
2023-10-08T01:24:49.988Z,17.20
2023-10-08T01:27:23.106Z,17.28
2023-10-08T01:29:53.267Z,17.23
2023-10-08T01:32:23.620Z,17.24
2023-10-08T01:34:51.896Z,17.31
2023-10-08T01:37:21.952Z,17.30
2023-10-08T01:39:51.517Z,17.23
2023-10-08T01:42:19.465Z,17.34
2023-10-08T01:44:49.664Z,17.39
2023-10-08T01:47:17.909Z,17.42
2023-10-08T01:49:47.723Z,17.41
2023-10-08T01:52:21.832Z,17.25
2023-10-08T01:54:54.518Z,17.27
2023-10-08T01:57:22.428Z,17.37
2023-10-08T01:59:50.370Z,17.30
2023-10-08T02:02:18.754Z,17.19
2023-10-08T02:04:47.131Z,17.01
2023-10-08T02:07:14.815Z,16.91
2023-10-08T02:09:42.836Z,16.85
2023-10-08T02:12:15.559Z,16.78
2023-10-08T02:14:44.021Z,16.74
2023-10-08T02:17:13.379Z,16.72
2023-10-08T02:19:42.641Z,16.81
2023-10-08T02:22:11.558Z,16.69
2023-10-08T02:24:41.044Z,16.67
2023-10-08T02:27:11.458Z,16.77
2023-10-08T02:29:40.898Z,16.80
2023-10-08T02:32:11.428Z,16.82
2023-10-08T02:34:39.144Z,16.73
2023-10-08T02:37:06.935Z,16.78
2023-10-08T02:39:38.566Z,16.75
2023-10-08T02:42:11.643Z,16.68
2023-10-08T02:44:43.105Z,16.55
2023-10-08T02:47:13.193Z,16.44
2023-10-08T02:49:42.730Z,16.42
2023-10-08T02:52:10.769Z,16.38
2023-10-08T02:54:38.867Z,16.29
2023-10-08T02:57:11.828Z,16.20
2023-10-08T02:59:41.900Z,16.09
2023-10-08T03:02:21.076Z,15.92
2023-10-08T03:04:52.690Z,15.90
2023-10-08T03:07:27.267Z,15.89
2023-10-08T03:10:07.062Z,15.91
2023-10-08T03:12:35.299Z,15.93
2023-10-08T03:15:14.705Z,16.01
2023-10-08T03:17:49.738Z,16.07
2023-10-08T03:20:39.536Z,16.00
2023-10-08T03:23:13.885Z,16.05
2023-10-08T03:25:43.582Z,16.10
2023-10-08T03:28:14.194Z,16.04
2023-10-08T03:30:51.155Z,15.92
2023-10-08T03:33:25.507Z,16.05
2023-10-08T03:35:56.466Z,16.07
2023-10-08T03:38:31.463Z,16.04
2023-10-08T03:41:02.233Z,15.92
2023-10-08T03:43:44.209Z,15.92
2023-10-08T03:46:17.192Z,15.77
2023-10-08T03:48:46.450Z,15.83
2023-10-08T03:51:15.721Z,15.80
2023-10-08T03:53:59.341Z,15.79
2023-10-08T03:56:30.884Z,15.86
2023-10-08T03:59:02.253Z,15.80
2023-10-08T04:01:34.143Z,15.72
2023-10-08T04:04:02.903Z,15.66
2023-10-08T04:06:31.884Z,15.70
2023-10-08T04:09:13.369Z,15.69
2023-10-08T04:11:54.603Z,15.66
2023-10-08T04:14:26.042Z,15.70
2023-10-08T04:16:55.395Z,15.70
2023-10-08T04:19:28.378Z,15.76
2023-10-08T04:21:56.778Z,15.80
2023-10-08T04:24:30.010Z,15.88
2023-10-08T04:26:59.408Z,15.88
2023-10-08T04:29:27.835Z,15.89
2023-10-08T04:32:08.652Z,16.00
2023-10-08T04:34:37.204Z,16.08
2023-10-08T04:37:14.072Z,16.14
2023-10-08T04:39:48.907Z,16.20
2023-10-08T04:42:28.056Z,16.16
2023-10-08T04:44:59.843Z,16.19
2023-10-08T04:47:34.061Z,16.24
2023-10-08T04:50:05.484Z,16.23
2023-10-08T04:52:35.593Z,16.11
2023-10-08T04:55:14.411Z,16.17
2023-10-08T04:57:44.044Z,16.30
2023-10-08T05:00:16.424Z,16.38
2023-10-08T05:02:52.041Z,16.53
2023-10-08T05:05:30.919Z,16.62
2023-10-08T05:08:26.239Z,16.59
2023-10-08T05:11:17.588Z,16.73
2023-10-08T05:13:56.745Z,16.65
2023-10-08T05:16:54.262Z,16.56
2023-10-08T05:19:55.547Z,16.53
2023-10-08T05:22:45.048Z,16.53
2023-10-08T05:25:26.260Z,16.49
2023-10-08T05:28:10.399Z,16.51
2023-10-08T05:30:42.739Z,16.45
2023-10-08T05:33:27.088Z,16.64
2023-10-08T05:36:11.122Z,16.60
2023-10-08T05:39:00.678Z,16.57
2023-10-08T05:41:40.219Z,16.48
2023-10-08T05:44:39.661Z,16.43
2023-10-08T05:47:30.875Z,16.29
2023-10-08T05:50:12.775Z,16.22
2023-10-08T05:53:03.411Z,16.32
2023-10-08T05:55:35.549Z,16.19
2023-10-08T05:58:25.589Z,16.15
2023-10-08T06:01:09.693Z,16.02
2023-10-08T06:03:40.821Z,15.95
2023-10-08T06:06:33.326Z,15.93
2023-10-08T06:09:19.992Z,16.05
2023-10-08T06:11:57.803Z,16.13
2023-10-08T06:14:37.768Z,16.15
2023-10-08T06:17:24.820Z,16.28
2023-10-08T06:19:53.928Z,16.43
2023-10-08T06:22:27.129Z,16.66
2023-10-08T06:25:16.184Z,16.68
2023-10-08T06:27:45.899Z,16.86
2023-10-08T06:30:18.223Z,16.26
2023-10-08T06:32:47.469Z,16.10
2023-10-08T06:35:18.724Z,16.05
2023-10-08T06:37:50.810Z,16.43
2023-10-08T06:40:38.170Z,16.80
2023-10-08T06:43:15.447Z,17.12
2023-10-08T06:45:44.876Z,17.13
2023-10-08T06:48:19.393Z,17.26
2023-10-08T06:50:47.656Z,17.11
2023-10-08T06:53:16.152Z,17.21
2023-10-08T06:55:45.598Z,17.27
2023-10-08T06:58:15.650Z,17.44
2023-10-08T07:00:50.151Z,17.40
2023-10-08T07:03:19.640Z,17.49
2023-10-08T07:05:59.455Z,17.74
2023-10-08T07:08:30.554Z,17.89
2023-10-08T07:11:02.370Z,18.11
2023-10-08T07:13:31.394Z,18.38
2023-10-08T07:16:01.204Z,18.70
2023-10-08T07:18:33.249Z,18.97
2023-10-08T07:21:13.048Z,19.30
2023-10-08T07:23:57.317Z,19.23
2023-10-08T07:26:37.694Z,19.50
2023-10-08T07:29:12.857Z,19.63
2023-10-08T07:31:42.797Z,19.85
2023-10-08T07:34:19.324Z,19.81
2023-10-08T07:36:50.536Z,19.92
2023-10-08T07:39:34.816Z,19.96
2023-10-08T07:42:09.069Z,20.05
2023-10-08T07:44:39.887Z,20.24
2023-10-08T07:47:11.516Z,20.07
2023-10-08T07:49:39.570Z,19.90
2023-10-08T07:52:08.239Z,19.68
2023-10-08T07:54:36.629Z,19.54
2023-10-08T07:57:13.162Z,19.37
2023-10-08T07:59:47.646Z,19.07
2023-10-08T08:02:18.873Z,19.27
2023-10-08T08:04:54.033Z,19.19
2023-10-08T08:07:22.904Z,19.33
2023-10-08T08:09:53.583Z,19.60
2023-10-08T08:12:24.118Z,19.56
2023-10-08T08:14:53.213Z,19.50
2023-10-08T08:17:24.187Z,19.69
2023-10-08T08:19:53.665Z,19.73
2023-10-08T08:22:23.777Z,19.73
2023-10-08T08:24:57.489Z,20.08
2023-10-08T08:27:32.751Z,20.16
2023-10-08T08:30:11.348Z,20.13
2023-10-08T08:32:40.636Z,20.28
2023-10-08T08:35:13.204Z,20.59
2023-10-08T08:37:42.561Z,20.55
2023-10-08T08:40:19.949Z,20.49
2023-10-08T08:42:51.047Z,20.22
2023-10-08T08:45:22.941Z,19.99
2023-10-08T08:47:51.619Z,20.01
2023-10-08T08:50:20.605Z,20.09
2023-10-08T08:52:48.938Z,20.01
2023-10-08T08:55:18.799Z,20.05
2023-10-08T08:57:50.852Z,20.27
2023-10-08T09:00:23.595Z,20.75
2023-10-08T09:02:51.685Z,20.65
2023-10-08T09:05:26.688Z,20.94
2023-10-08T09:08:00.013Z,21.65
2023-10-08T09:10:29.519Z,21.68
2023-10-08T09:13:00.497Z,21.63
2023-10-08T09:15:30.706Z,22.23
2023-10-08T09:18:02.214Z,22.94
2023-10-08T09:20:32.982Z,23.71
2023-10-08T09:23:13.726Z,22.82
2023-10-08T09:25:42.432Z,22.38
2023-10-08T09:28:14.312Z,22.48
2023-10-08T09:30:43.279Z,21.94
2023-10-08T09:33:13.702Z,22.54
2023-10-08T09:35:41.895Z,23.18
2023-10-08T09:38:10.839Z,23.77
2023-10-08T09:40:39.350Z,23.83
2023-10-08T09:43:09.988Z,23.38
2023-10-08T09:45:40.873Z,23.85
2023-10-08T09:48:14.392Z,24.18
2023-10-08T09:50:43.732Z,24.57
2023-10-08T09:53:17.940Z,25.15
2023-10-08T09:55:50.081Z,25.41
2023-10-08T09:58:19.590Z,25.29
2023-10-08T10:00:51.095Z,24.93
2023-10-08T10:03:21.503Z,24.98
2023-10-08T10:05:51.361Z,25.12
2023-10-08T10:08:21.299Z,25.18
2023-10-08T10:10:50.432Z,25.06
2023-10-08T10:13:21.600Z,24.48
2023-10-08T10:15:51.131Z,24.00
2023-10-08T10:18:31.493Z,23.94
2023-10-08T10:21:04.061Z,24.22
2023-10-08T10:23:41.546Z,25.02
2023-10-08T10:26:26.381Z,25.33
2023-10-08T10:29:28.002Z,25.04
2023-10-08T10:31:58.169Z,25.18
2023-10-08T10:34:29.093Z,25.48
2023-10-08T10:37:04.208Z,25.15
2023-10-08T10:39:36.034Z,25.23
2023-10-08T10:42:07.587Z,25.43
2023-10-08T10:44:37.872Z,25.68
2023-10-08T10:47:44.183Z,24.64
2023-10-08T10:50:28.009Z,23.66
2023-10-08T10:52:57.141Z,25.56
2023-10-08T10:55:33.076Z,27.20
2023-10-08T10:58:17.212Z,26.54
2023-10-08T11:00:48.857Z,28.35
2023-10-08T11:03:19.026Z,29.17
2023-10-08T11:05:53.036Z,27.62
2023-10-08T11:08:24.467Z,27.20
2023-10-08T11:10:59.998Z,27.90
2023-10-08T11:13:38.907Z,27.13
2023-10-08T11:16:08.881Z,26.66
2023-10-08T11:18:48.521Z,27.31
2023-10-08T11:21:18.138Z,30.66
2023-10-08T11:23:57.148Z,25.98
2023-10-08T11:26:34.331Z,27.58
2023-10-08T11:29:05.357Z,26.93
2023-10-08T11:31:35.879Z,26.67
2023-10-08T11:34:11.072Z,26.64
2023-10-08T11:36:50.843Z,26.71
2023-10-08T11:39:32.014Z,25.24
2023-10-08T11:42:07.607Z,27.24
2023-10-08T11:44:38.110Z,29.70
2023-10-08T11:47:15.458Z,28.06
2023-10-08T11:49:52.209Z,26.35
2023-10-08T11:52:23.159Z,27.49
2023-10-08T11:54:54.287Z,29.76
2023-10-08T11:57:24.486Z,30.96
2023-10-08T11:59:56.627Z,32.44
2023-10-08T12:02:26.303Z,32.76
2023-10-08T12:04:59.255Z,31.49
2023-10-08T12:07:29.351Z,27.89
2023-10-08T12:09:57.922Z,26.83
2023-10-08T12:12:26.565Z,30.68
2023-10-08T12:14:56.008Z,31.48
2023-10-08T12:17:39.158Z,33.51
2023-10-08T12:20:24.538Z,36.15
2023-10-08T12:22:53.579Z,31.55
2023-10-08T12:25:23.979Z,29.94
2023-10-08T12:27:52.418Z,27.35
2023-10-08T12:30:32.035Z,27.01
2023-10-08T12:33:02.124Z,27.15
2023-10-08T12:35:31.678Z,29.20
2023-10-08T12:37:59.971Z,31.17
2023-10-08T12:40:43.313Z,31.99
2023-10-08T12:43:12.307Z,29.56
2023-10-08T12:45:40.872Z,29.50
2023-10-08T12:48:10.015Z,26.80
2023-10-08T12:50:44.616Z,27.23
2023-10-08T12:53:13.655Z,28.38
2023-10-08T12:55:41.729Z,33.77
2023-10-08T12:58:11.786Z,32.54
2023-10-08T13:00:42.634Z,31.57
2023-10-08T13:03:17.147Z,30.72
2023-10-08T13:05:46.837Z,35.60
2023-10-08T13:08:15.758Z,34.65
2023-10-08T13:10:45.667Z,37.14
2023-10-08T13:13:14.770Z,36.15
2023-10-08T13:15:43.950Z,36.17
2023-10-08T13:18:12.364Z,36.28
2023-10-08T13:20:43.139Z,36.16
2023-10-08T13:23:12.777Z,33.08
2023-10-08T13:25:40.663Z,32.11
2023-10-08T13:28:11.205Z,34.80
2023-10-08T13:30:39.600Z,38.43
2023-10-08T13:33:09.907Z,34.63
2023-10-08T13:35:38.292Z,36.82
2023-10-08T13:38:10.644Z,39.67
2023-10-08T13:41:01.450Z,39.28
2023-10-08T13:43:34.730Z,35.86
2023-10-08T13:46:05.555Z,29.16
2023-10-08T13:48:34.896Z,29.71
2023-10-08T13:51:05.224Z,29.95
2023-10-08T13:53:33.600Z,29.94
2023-10-08T13:56:03.685Z,28.43
2023-10-08T13:58:31.865Z,28.66
2023-10-08T14:01:01.467Z,26.90
2023-10-08T14:03:32.706Z,27.09
2023-10-08T14:06:04.327Z,29.26
2023-10-08T14:08:32.693Z,27.71
2023-10-08T14:11:04.200Z,26.08
2023-10-08T14:13:35.733Z,25.20
2023-10-08T14:16:09.312Z,24.85
2023-10-08T14:18:41.962Z,24.29
2023-10-08T14:21:11.473Z,24.47
2023-10-08T14:23:40.783Z,24.13
2023-10-08T14:26:10.438Z,24.20
2023-10-08T14:28:45.493Z,24.58
2023-10-08T14:31:16.748Z,25.54
2023-10-08T14:33:56.966Z,26.25
2023-10-08T14:36:42.952Z,24.94
2023-10-08T14:39:28.520Z,24.59
2023-10-08T14:42:14.190Z,24.49
2023-10-08T14:44:43.449Z,24.81
2023-10-08T14:47:11.249Z,26.73
2023-10-08T14:49:39.573Z,27.23
2023-10-08T14:52:07.738Z,28.03
2023-10-08T14:54:35.473Z,28.90
2023-10-08T14:57:04.843Z,29.87
2023-10-08T14:59:33.417Z,30.38
2023-10-08T15:02:02.597Z,30.15
2023-10-08T15:04:30.444Z,29.73
2023-10-08T15:06:58.589Z,29.24
2023-10-08T15:09:26.630Z,29.11
2023-10-08T15:11:55.260Z,29.09
2023-10-08T15:14:24.664Z,29.09
2023-10-08T15:16:54.183Z,29.18
2023-10-08T15:19:24.681Z,29.09
2023-10-08T15:21:53.830Z,29.16
2023-10-08T15:24:23.970Z,29.08
2023-10-08T15:26:53.721Z,28.98
2023-10-08T15:29:23.214Z,28.91
2023-10-08T15:31:53.143Z,28.78
2023-10-08T15:34:32.877Z,28.56
2023-10-08T15:37:08.024Z,28.43
2023-10-08T15:39:39.156Z,28.06
2023-10-08T15:42:07.416Z,27.44
2023-10-08T15:44:36.469Z,27.10
2023-10-08T15:47:04.460Z,27.10
2023-10-08T15:49:32.611Z,26.96
2023-10-08T15:52:00.856Z,26.77
2023-10-08T15:54:30.799Z,26.41
2023-10-08T15:56:59.316Z,26.16
2023-10-08T15:59:27.543Z,26.35
2023-10-08T16:01:55.860Z,25.51
2023-10-08T16:04:27.721Z,25.54
2023-10-08T16:06:55.856Z,25.55
2023-10-08T16:09:24.454Z,25.48
2023-10-08T16:11:54.099Z,24.91
2023-10-08T16:14:25.436Z,23.95
2023-10-08T16:16:54.004Z,23.56
2023-10-08T16:19:22.323Z,23.63
2023-10-08T16:21:52.459Z,23.51
2023-10-08T16:24:20.559Z,23.43
2023-10-08T16:26:49.307Z,22.92
2023-10-08T16:29:18.675Z,22.16
2023-10-08T16:31:48.419Z,21.77
2023-10-08T16:34:17.102Z,21.62
2023-10-08T16:36:46.545Z,21.43
2023-10-08T16:39:18.673Z,21.22
2023-10-08T16:41:50.154Z,21.26
2023-10-08T16:44:19.876Z,21.47
2023-10-08T16:46:48.153Z,21.60
2023-10-08T16:49:18.465Z,21.46
2023-10-08T16:51:46.520Z,21.44
2023-10-08T16:54:17.338Z,21.37
2023-10-08T16:56:45.871Z,21.25
2023-10-08T16:59:16.081Z,21.10
2023-10-08T17:01:46.945Z,20.95
2023-10-08T17:04:15.795Z,20.79
2023-10-08T17:06:43.870Z,20.63
2023-10-08T17:09:18.108Z,20.61
2023-10-08T17:11:48.163Z,20.57
2023-10-08T17:14:17.170Z,20.41
2023-10-08T17:16:47.289Z,20.24
2023-10-08T17:19:17.722Z,19.99
2023-10-08T17:21:50.295Z,19.82
2023-10-08T17:24:19.741Z,19.69
2023-10-08T17:27:00.419Z,19.55
2023-10-08T17:29:37.291Z,19.41
2023-10-08T17:32:12.775Z,19.33
2023-10-08T17:34:42.724Z,19.26
2023-10-08T17:37:11.562Z,19.23
2023-10-08T17:39:40.697Z,19.19
2023-10-08T17:42:11.108Z,19.07
2023-10-08T17:44:39.650Z,18.83
2023-10-08T17:47:14.635Z,18.77
2023-10-08T17:49:43.149Z,18.63
2023-10-08T17:52:14.747Z,18.57
2023-10-08T17:54:44.529Z,18.42
2023-10-08T17:57:16.461Z,18.31
2023-10-08T17:59:45.296Z,18.09
2023-10-08T18:02:14.672Z,18.01
2023-10-08T18:04:42.721Z,17.92
2023-10-08T18:07:11.315Z,17.72
2023-10-08T18:09:39.131Z,17.52
2023-10-08T18:12:09.018Z,17.30
2023-10-08T18:14:37.179Z,17.19
2023-10-08T18:17:04.990Z,17.21
2023-10-08T18:19:37.640Z,16.98
2023-10-08T18:22:05.575Z,16.86
2023-10-08T18:24:34.237Z,16.82
2023-10-08T18:27:02.312Z,16.92
2023-10-08T18:29:30.181Z,17.08
2023-10-08T18:31:59.507Z,16.92
2023-10-08T18:34:29.027Z,16.69
2023-10-08T18:37:01.779Z,16.57
2023-10-08T18:39:29.994Z,16.65
2023-10-08T18:42:00.426Z,16.64
2023-10-08T18:44:29.018Z,16.80
2023-10-08T18:46:57.344Z,16.87
2023-10-08T18:49:29.162Z,16.91
2023-10-08T18:51:59.391Z,17.08
2023-10-08T18:54:27.640Z,16.88
2023-10-08T18:56:55.854Z,16.88
2023-10-08T18:59:24.408Z,16.61
2023-10-08T19:01:52.217Z,16.42
2023-10-08T19:04:20.416Z,16.27
2023-10-08T19:06:48.479Z,16.20
2023-10-08T19:09:19.430Z,16.37
2023-10-08T19:11:47.611Z,16.18
2023-10-08T19:14:16.101Z,16.17
2023-10-08T19:16:48.502Z,16.02
2023-10-08T19:19:17.650Z,16.02
2023-10-08T19:21:45.458Z,15.98
2023-10-08T19:24:14.222Z,15.84
2023-10-08T19:26:44.039Z,16.06
2023-10-08T19:29:12.689Z,15.89
2023-10-08T19:31:41.314Z,15.86
2023-10-08T19:34:09.471Z,15.85
2023-10-08T19:36:37.641Z,15.73
2023-10-08T19:39:08.266Z,15.78
2023-10-08T19:41:36.301Z,15.74
2023-10-08T19:44:09.220Z,15.84
2023-10-08T19:46:37.276Z,15.89
2023-10-08T19:49:06.110Z,15.74
2023-10-08T19:51:35.524Z,15.65
2023-10-08T19:54:04.935Z,15.59
2023-10-08T19:56:33.179Z,15.67
2023-10-08T19:59:01.145Z,15.59
2023-10-08T20:01:34.443Z,15.56
2023-10-08T20:04:02.479Z,15.58
2023-10-08T20:06:31.656Z,15.59
2023-10-08T20:09:00.100Z,15.60
2023-10-08T20:11:28.889Z,15.49
2023-10-08T20:13:56.818Z,15.39
2023-10-08T20:16:26.254Z,15.26
2023-10-08T20:18:56.182Z,15.44
2023-10-08T20:21:23.974Z,15.18
2023-10-08T20:23:53.148Z,15.02
2023-10-08T20:26:23.412Z,15.15
2023-10-08T20:28:54.728Z,14.83
2023-10-08T20:31:25.517Z,14.71
2023-10-08T20:33:56.586Z,14.72
2023-10-08T20:36:25.052Z,14.57
2023-10-08T20:38:54.498Z,14.56
2023-10-08T20:41:22.434Z,14.58
2023-10-08T20:43:51.724Z,14.54
2023-10-08T20:46:31.878Z,14.53
2023-10-08T20:49:01.784Z,14.49
2023-10-08T20:51:29.961Z,14.60
2023-10-08T20:53:58.385Z,14.88
2023-10-08T20:56:27.146Z,14.93
2023-10-08T20:58:55.279Z,14.96
2023-10-08T21:01:34.713Z,14.85
2023-10-08T21:04:04.647Z,14.76
2023-10-08T21:06:32.775Z,14.76
2023-10-08T21:09:01.173Z,15.02
2023-10-08T21:11:30.480Z,15.06
2023-10-08T21:13:58.924Z,15.12
2023-10-08T21:16:27.633Z,15.27
2023-10-08T21:18:55.821Z,15.42
2023-10-08T21:21:25.718Z,15.41
2023-10-08T21:23:55.154Z,15.38
2023-10-08T21:26:23.513Z,15.37
2023-10-08T21:28:54.243Z,15.42
2023-10-08T21:31:22.400Z,15.51
2023-10-08T21:33:51.215Z,15.49
2023-10-08T21:36:19.805Z,15.56
2023-10-08T21:38:52.906Z,15.57
2023-10-08T21:41:21.316Z,15.44
2023-10-08T21:43:53.717Z,15.42
2023-10-08T21:46:25.784Z,15.42
2023-10-08T21:48:54.017Z,15.37
2023-10-08T21:51:23.867Z,15.28
2023-10-08T21:53:53.382Z,15.14
2023-10-08T21:56:21.481Z,15.04
2023-10-08T21:58:50.333Z,14.91
2023-10-08T22:01:25.146Z,14.79
2023-10-08T22:03:54.435Z,14.82
2023-10-08T22:06:23.766Z,14.85
2023-10-08T22:08:53.454Z,14.92
2023-10-08T22:11:25.363Z,14.93
2023-10-08T22:13:53.595Z,14.95
2023-10-08T22:16:23.812Z,15.01
2023-10-08T22:18:58.082Z,15.04
2023-10-08T22:21:30.152Z,15.09
2023-10-08T22:24:01.307Z,15.14
2023-10-08T22:26:29.908Z,15.15
2023-10-08T22:29:02.218Z,14.81
2023-10-08T22:31:34.193Z,14.59
2023-10-08T22:34:08.490Z,14.49
2023-10-08T22:36:46.004Z,14.20
2023-10-08T22:39:20.617Z,13.71
2023-10-08T22:41:55.644Z,13.40
2023-10-08T22:44:24.319Z,13.21
2023-10-08T22:47:04.636Z,13.06
2023-10-08T22:49:33.960Z,13.03
2023-10-08T22:52:04.867Z,13.04
2023-10-08T22:54:38.068Z,12.99
2023-10-08T22:57:06.954Z,13.09
2023-10-08T22:59:36.767Z,13.31
2023-10-08T23:02:06.586Z,13.32
2023-10-08T23:04:35.287Z,13.48
2023-10-08T23:07:05.084Z,13.49
2023-10-08T23:09:34.449Z,13.70
2023-10-08T23:12:02.343Z,14.01
2023-10-08T23:14:30.270Z,14.17
2023-10-08T23:16:58.369Z,14.28
2023-10-08T23:19:27.195Z,14.31
2023-10-08T23:22:00.040Z,14.10
2023-10-08T23:24:27.837Z,14.14
2023-10-08T23:26:57.067Z,14.29
2023-10-08T23:29:25.778Z,14.36
2023-10-08T23:31:53.586Z,14.46
2023-10-08T23:34:22.688Z,14.68
2023-10-08T23:36:53.948Z,14.91
2023-10-08T23:39:27.391Z,15.04
2023-10-08T23:42:02.386Z,15.09
2023-10-08T23:44:32.448Z,15.00
2023-10-08T23:47:10.661Z,14.87
2023-10-08T23:50:11.085Z,14.78
2023-10-08T23:52:38.928Z,14.84
2023-10-08T23:55:08.555Z,14.82
2023-10-08T23:57:48.539Z,14.89
